Time;durP1;ratioP1;P1;durP2;ratioP2;P2;SDS_P1;SDS_P2;PMS_P1;PMS_P2;Temp;Humidity;BMP_temperature;BMP_pressure;BME280_temperature;BME280_humidity;BME280_pressure;Samples;Min_cycle;Max_cycle;Signal;HPM_P1;HPM_P2
2021/09/14 00:00:23;;;;;;;1.30;0.90;;;;;;;;;;5069233;28;20052;-71
2021/09/14 00:02:49;;;;;;;1.80;0.90;;;;;;;;;;5060785;28;20450;-71
2021/09/14 00:05:15;;;;;;;3.70;0.95;;;;;;;;;;5070281;28;20516;-71
2021/09/14 00:07:40;;;;;;;1.63;1.00;;;;;;;;;;5066874;28;20024;-71
2021/09/14 00:10:07;;;;;;;2.15;1.02;;;;;;;;;;5058170;28;20471;-71
2021/09/14 00:12:32;;;;;;;1.70;0.82;;;;;;;;;;5068785;28;20111;-71
2021/09/14 00:14:58;;;;;;;2.33;1.10;;;;;;;;;;5066405;28;20104;-71
2021/09/14 00:17:23;;;;;;;1.58;0.88;;;;;;;;;;5063466;28;20028;-71
2021/09/14 00:19:49;;;;;;;1.73;0.98;;;;;;;;;;5070475;28;20517;-71
2021/09/14 00:22:14;;;;;;;2.67;1.00;;;;;;;;;;5070531;28;20111;-71
2021/09/14 00:24:40;;;;;;;2.08;0.90;;;;;;;;;;5057707;28;20043;-71
2021/09/14 00:27:05;;;;;;;2.55;1.00;;;;;;;;;;5068043;28;20369;-71
2021/09/14 00:29:31;;;;;;;1.55;0.88;;;;;;;;;;5065653;28;20055;-72
2021/09/14 00:31:56;;;;;;;2.47;0.88;;;;;;;;;;5065721;28;20024;-71
2021/09/14 00:34:22;;;;;;;1.13;0.70;;;;;;;;;;5066617;28;20028;-71
2021/09/14 00:36:47;;;;;;;1.42;0.90;;;;;;;;;;5072157;28;20412;-71
2021/09/14 00:39:13;;;;;;;1.48;0.80;;;;;;;;;;5060165;28;20313;-71
2021/09/14 00:41:38;;;;;;;2.90;0.90;;;;;;;;;;5067621;28;20094;-73
2021/09/14 00:44:04;;;;;;;1.50;0.82;;;;;;;;;;5082021;28;20071;-71
2021/09/14 00:46:30;;;;;;;1.30;0.90;;;;;;;;;;5063969;28;20025;-71
2021/09/14 00:48:55;;;;;;;1.30;0.85;;;;;;;;;;5057239;28;20035;-71
2021/09/14 00:51:21;;;;;;;3.28;0.90;;;;;;;;;;5060448;28;20451;-71
2021/09/14 00:53:48;;;;;;;1.02;0.90;;;;;;;;;;5060749;28;20089;-71
2021/09/14 00:56:17;;;;;;;1.13;0.70;;;;;;;;;;5072531;28;20016;-71
2021/09/14 00:58:44;;;;;;;2.63;0.90;;;;;;;;;;5073452;28;20032;-71
2021/09/14 01:01:10;;;;;;;1.85;0.85;;;;;;;;;;5078116;28;20027;-71
2021/09/14 01:03:36;;;;;;;1.17;0.80;;;;;;;;;;5083910;28;20028;-71
2021/09/14 01:06:04;;;;;;;2.35;0.98;;;;;;;;;;5073920;28;20051;-71
2021/09/14 01:08:33;;;;;;;1.05;0.70;;;;;;;;;;5062004;28;20040;-71
2021/09/14 01:11:01;;;;;;;2.17;0.90;;;;;;;;;;5101029;28;20445;-72
2021/09/14 01:13:27;;;;;;;2.33;0.73;;;;;;;;;;5074085;28;20032;-71
2021/09/14 01:15:52;;;;;;;2.30;0.93;;;;;;;;;;5073040;28;20043;-72
2021/09/14 01:18:17;;;;;;;1.75;0.80;;;;;;;;;;5072410;28;20024;-72
2021/09/14 01:20:43;;;;;;;4.10;0.80;;;;;;;;;;5063687;28;20067;-71
2021/09/14 01:23:08;;;;;;;3.63;1.10;;;;;;;;;;5067418;28;20017;-71
2021/09/14 01:25:34;;;;;;;2.05;1.10;;;;;;;;;;5062813;28;20032;-71
2021/09/14 01:28:06;;;;;;;1.00;0.82;;;;;;;;;;5083682;28;20041;-71
2021/09/14 01:30:33;;;;;;;1.17;0.93;;;;;;;;;;5066407;28;20472;-73
2021/09/14 01:32:59;;;;;;;1.67;1.08;;;;;;;;;;5074134;28;20056;-71
2021/09/14 01:35:27;;;;;;;0.85;0.75;;;;;;;;;;5062516;28;20048;-71
2021/09/14 01:37:53;;;;;;;1.63;1.05;;;;;;;;;;5076896;28;20107;-71
2021/09/14 01:40:20;;;;;;;1.90;0.95;;;;;;;;;;5085327;28;20028;-71
2021/09/14 01:42:46;;;;;;;2.25;0.95;;;;;;;;;;5072982;28;20036;-71
2021/09/14 01:45:13;;;;;;;1.25;0.80;;;;;;;;;;5073226;28;20032;-71
2021/09/14 01:47:40;;;;;;;1.13;0.77;;;;;;;;;;5081146;28;20024;-72
2021/09/14 01:50:07;;;;;;;2.75;0.88;;;;;;;;;;5072301;28;20016;-71
2021/09/14 01:52:33;;;;;;;1.30;0.90;;;;;;;;;;5075004;28;20024;-71
2021/09/14 01:55:04;;;;;;;1.70;0.80;;;;;;;;;;5081968;28;20529;-72
2021/09/14 01:57:38;;;;;;;1.98;0.93;;;;;;;;;;5085476;28;20590;-71
2021/09/14 02:00:06;;;;;;;;;;;;;;;;;;5052690;28;20041;-71
2021/09/14 02:08:06;;;;;;;1.98;0.90;;;;;;;;;;5072366;28;20408;-71
2021/09/14 02:30:07;;;;;;;2.60;0.80;;;;;;;;;;5082867;28;20085;-71
2021/09/14 02:43:43;;;;;;;1.95;0.80;;;;;;;;;;5069077;28;20511;-72
2021/09/14 02:59:37;;;;;;;1.80;0.95;;;;;;;;;;5083257;28;20047;-71
2021/09/14 03:02:04;;;;;;;1.60;1.02;;;;;;;;;;5071138;28;20035;-73
2021/09/14 03:04:30;;;;;;;2.00;0.90;;;;;;;;;;5063793;28;20029;-71
2021/09/14 03:06:56;;;;;;;1.20;0.88;;;;;;;;;;5062875;28;20024;-71
2021/09/14 03:09:23;;;;;;;1.38;0.90;;;;;;;;;;5078703;28;20101;-71
2021/09/14 03:11:49;;;;;;;1.13;0.88;;;;;;;;;;5072562;28;20032;-72
2021/09/14 03:14:14;;;;;;;1.45;0.80;;;;;;;;;;5065004;28;20108;-71
2021/09/14 03:16:40;;;;;;;2.85;0.90;;;;;;;;;;5069448;28;20028;-71
2021/09/14 03:19:06;;;;;;;2.30;0.93;;;;;;;;;;5080998;28;20118;-71
2021/09/14 03:21:32;;;;;;;1.20;0.77;;;;;;;;;;5077418;28;20021;-73
2021/09/14 03:23:58;;;;;;;1.63;1.00;;;;;;;;;;5065165;28;20029;-71
2021/09/14 03:26:24;;;;;;;1.50;0.93;;;;;;;;;;5066648;28;20054;-73
2021/09/14 03:28:50;;;;;;;1.67;0.88;;;;;;;;;;5071687;28;20523;-73
2021/09/14 03:31:16;;;;;;;1.67;1.08;;;;;;;;;;5074723;28;20028;-71
2021/09/14 03:33:43;;;;;;;1.92;0.95;;;;;;;;;;5063673;28;20023;-71
2021/09/14 03:36:09;;;;;;;5.22;0.98;;;;;;;;;;5057178;28;20491;-71
2021/09/14 03:38:34;;;;;;;2.17;1.10;;;;;;;;;;5068478;28;20041;-71
2021/09/14 03:41:00;;;;;;;1.83;0.90;;;;;;;;;;5064294;28;20031;-71
2021/09/14 03:43:25;;;;;;;2.80;0.80;;;;;;;;;;5060295;28;20111;-71
2021/09/14 03:45:51;;;;;;;1.45;0.80;;;;;;;;;;5056831;28;20468;-72
2021/09/14 03:48:17;;;;;;;2.13;1.05;;;;;;;;;;5069633;28;20028;-71
2021/09/14 03:50:43;;;;;;;1.40;0.90;;;;;;;;;;5075532;28;20020;-71
2021/09/14 03:53:09;;;;;;;1.40;0.85;;;;;;;;;;5071004;28;20052;-72
2021/09/14 03:55:34;;;;;;;1.42;0.95;;;;;;;;;;5061721;28;20027;-71
2021/09/14 03:58:00;;;;;;;2.30;0.90;;;;;;;;;;5060497;28;20115;-72
2021/09/14 04:00:26;;;;;;;1.15;0.75;;;;;;;;;;5068868;28;20495;-73
2021/09/14 04:02:56;;;;;;;2.40;0.90;;;;;;;;;;5055203;28;20045;-72
2021/09/14 04:05:37;;;;;;;1.20;0.90;;;;;;;;;;5071635;28;20070;-71
2021/09/14 04:10:33;;;;;;;1.92;1.00;;;;;;;;;;5070221;28;20108;-71
2021/09/14 04:12:59;;;;;;;2.15;1.00;;;;;;;;;;5054567;28;20067;-71
2021/09/14 04:15:25;;;;;;;4.70;1.10;;;;;;;;;;5069110;28;20048;-72
2021/09/14 04:17:50;;;;;;;2.65;1.10;;;;;;;;;;5079344;28;20555;-72
2021/09/14 04:20:15;;;;;;;1.52;0.98;;;;;;;;;;5069035;28;20392;-72
2021/09/14 04:22:41;;;;;;;1.67;0.90;;;;;;;;;;5048723;28;20496;-71
2021/09/14 04:25:07;;;;;;;2.20;1.13;;;;;;;;;;5064629;28;20065;-73
2021/09/14 04:27:32;;;;;;;1.67;1.00;;;;;;;;;;5085439;28;20455;-71
2021/09/14 04:29:57;;;;;;;2.20;1.10;;;;;;;;;;5070789;28;20024;-72
2021/09/14 04:32:23;;;;;;;1.90;1.00;;;;;;;;;;5075538;28;20396;-71
2021/09/14 04:34:48;;;;;;;1.58;0.90;;;;;;;;;;5077334;28;20027;-71
2021/09/14 04:37:14;;;;;;;2.00;0.93;;;;;;;;;;5080831;28;20090;-71
2021/09/14 04:39:39;;;;;;;1.63;0.93;;;;;;;;;;5075237;28;20536;-71
2021/09/14 04:42:05;;;;;;;2.60;1.10;;;;;;;;;;5070965;28;20126;-71
2021/09/14 04:44:30;;;;;;;1.55;1.00;;;;;;;;;;5067756;28;20523;-73
2021/09/14 04:46:55;;;;;;;7.10;1.30;;;;;;;;;;5068001;28;20017;-71
2021/09/14 04:49:21;;;;;;;3.33;1.25;;;;;;;;;;5063876;28;20025;-71
2021/09/14 04:51:46;;;;;;;2.00;1.20;;;;;;;;;;5053980;28;20226;-72
2021/09/14 04:54:12;;;;;;;2.15;1.27;;;;;;;;;;5084135;28;20031;-72
2021/09/14 04:56:37;;;;;;;2.17;0.95;;;;;;;;;;5070194;28;20456;-72
2021/09/14 04:59:03;;;;;;;2.08;1.30;;;;;;;;;;5075950;28;20294;-71
2021/09/14 05:01:28;;;;;;;3.28;1.20;;;;;;;;;;5069601;28;20515;-72
2021/09/14 05:03:54;;;;;;;1.80;1.10;;;;;;;;;;5068692;28;20062;-72
2021/09/14 05:06:19;;;;;;;1.70;0.90;;;;;;;;;;5058400;28;20025;-72
2021/09/14 05:08:45;;;;;;;1.58;0.90;;;;;;;;;;5069295;28;20384;-72
2021/09/14 05:11:13;;;;;;;2.00;1.20;;;;;;;;;;5059731;28;20082;-71
2021/09/14 05:13:39;;;;;;;1.98;1.15;;;;;;;;;;5078031;28;20059;-71
2021/09/14 05:16:04;;;;;;;1.83;1.00;;;;;;;;;;5056445;28;20024;-72
2021/09/14 05:18:30;;;;;;;3.88;1.33;;;;;;;;;;5077200;28;20058;-72
2021/09/14 05:20:57;;;;;;;1.80;1.20;;;;;;;;;;5073300;28;20024;-71
2021/09/14 05:23:32;;;;;;;3.08;1.38;;;;;;;;;;5064885;28;20099;-71
2021/09/14 05:26:00;;;;;;;2.38;1.40;;;;;;;;;;5062534;28;20028;-72
2021/09/14 05:28:26;;;;;;;1.98;1.27;;;;;;;;;;5073047;28;20020;-72
2021/09/14 05:30:52;;;;;;;2.10;1.30;;;;;;;;;;5082824;28;20397;-72
2021/09/14 05:33:18;;;;;;;2.45;1.08;;;;;;;;;;5063358;28;20037;-72
2021/09/14 05:35:49;;;;;;;2.53;1.17;;;;;;;;;;5069745;28;20016;-72
2021/09/14 05:38:17;;;;;;;1.70;1.10;;;;;;;;;;5078308;28;20036;-72
2021/09/14 05:40:43;;;;;;;1.88;1.10;;;;;;;;;;5070562;28;20024;-72
2021/09/14 05:43:09;;;;;;;2.97;1.33;;;;;;;;;;5078583;28;20021;-72
2021/09/14 05:45:34;;;;;;;3.03;1.60;;;;;;;;;;5057949;28;20024;-72
2021/09/14 05:48:01;;;;;;;5.28;2.28;;;;;;;;;;5066465;28;20024;-72
2021/09/14 05:50:27;;;;;;;3.95;2.08;;;;;;;;;;5071583;28;20338;-73
2021/09/14 05:52:52;;;;;;;1.88;1.27;;;;;;;;;;5078028;28;20028;-72
2021/09/14 05:55:19;;;;;;;3.22;1.35;;;;;;;;;;5077230;28;20025;-72
2021/09/14 05:57:44;;;;;;;3.47;1.20;;;;;;;;;;5083595;28;20038;-73
2021/09/14 06:00:11;;;;;;;3.13;1.17;;;;;;;;;;5077912;28;20052;-73
2021/09/14 06:02:36;;;;;;;3.22;1.30;;;;;;;;;;5084416;28;20040;-72
2021/09/14 06:05:03;;;;;;;2.88;1.30;;;;;;;;;;5069264;28;20038;-73
2021/09/14 06:07:29;;;;;;;1.73;1.27;;;;;;;;;;5072540;28;20024;-72
2021/09/14 06:09:55;;;;;;;5.32;1.70;;;;;;;;;;5080978;28;20036;-72
2021/09/14 06:12:21;;;;;;;4.53;1.45;;;;;;;;;;5081465;28;20051;-72
2021/09/14 06:14:47;;;;;;;3.90;1.40;;;;;;;;;;5068067;28;20019;-72
2021/09/14 06:17:12;;;;;;;3.08;1.30;;;;;;;;;;5070266;28;20028;-72
2021/09/14 06:19:37;;;;;;;3.97;1.40;;;;;;;;;;5079708;28;20024;-73
2021/09/14 06:22:04;;;;;;;6.47;1.98;;;;;;;;;;5068913;28;20100;-72
2021/09/14 06:24:30;;;;;;;3.90;1.50;;;;;;;;;;5070117;28;20447;-72
2021/09/14 06:26:55;;;;;;;3.30;1.40;;;;;;;;;;5079438;28;20025;-72
2021/09/14 06:29:21;;;;;;;2.70;1.60;;;;;;;;;;5073972;28;20028;-72
2021/09/14 06:31:46;;;;;;;3.15;1.80;;;;;;;;;;5069468;28;20025;-72
2021/09/14 06:34:12;;;;;;;4.40;1.73;;;;;;;;;;5075900;28;20021;-72
2021/09/14 06:36:37;;;;;;;3.78;1.75;;;;;;;;;;5064241;28;20040;-73
2021/09/14 06:39:03;;;;;;;2.72;1.60;;;;;;;;;;5076895;28;20053;-73
2021/09/14 06:41:29;;;;;;;3.50;2.00;;;;;;;;;;5066111;28;20028;-73
2021/09/14 06:43:54;;;;;;;3.55;1.75;;;;;;;;;;5071462;28;20036;-73
2021/09/14 06:46:20;;;;;;;3.22;1.83;;;;;;;;;;5073620;28;20033;-73
2021/09/14 06:48:46;;;;;;;2.63;1.80;;;;;;;;;;5072099;28;20071;-73
2021/09/14 06:51:11;;;;;;;3.10;1.50;;;;;;;;;;5072333;28;20495;-73
2021/09/14 06:53:37;;;;;;;5.80;2.00;;;;;;;;;;5072690;28;20377;-73
2021/09/14 06:56:03;;;;;;;3.15;1.55;;;;;;;;;;5072261;28;20013;-73
2021/09/14 06:58:28;;;;;;;2.50;1.50;;;;;;;;;;5063238;28;20060;-74
2021/09/14 07:00:54;;;;;;;2.55;1.50;;;;;;;;;;5073175;28;20472;-75
2021/09/14 07:03:20;;;;;;;2.85;1.40;;;;;;;;;;5076488;28;20052;-74
2021/09/14 07:05:45;;;;;;;1.65;1.20;;;;;;;;;;5071579;28;20021;-74
2021/09/14 07:08:13;;;;;;;2.97;1.38;;;;;;;;;;5069482;28;20741;-74
2021/09/14 07:10:38;;;;;;;2.30;1.30;;;;;;;;;;5074023;28;20035;-75
2021/09/14 07:13:04;;;;;;;3.67;1.40;;;;;;;;;;5072543;28;20032;-74
2021/09/14 07:15:29;;;;;;;1.40;1.10;;;;;;;;;;5072433;28;20036;-75
2021/09/14 07:17:55;;;;;;;2.88;1.35;;;;;;;;;;5072113;28;20048;-76
2021/09/14 07:20:21;;;;;;;3.20;1.10;;;;;;;;;;5066290;28;20054;-76
2021/09/14 07:22:46;;;;;;;2.65;2.00;;;;;;;;;;5063669;28;20032;-76
2021/09/14 07:25:12;;;;;;;3.40;1.23;;;;;;;;;;5077907;28;20021;-73
2021/09/14 07:27:38;;;;;;;1.83;1.25;;;;;;;;;;5059345;28;20033;-73
2021/09/14 07:30:04;;;;;;;2.55;1.27;;;;;;;;;;5064860;28;20457;-73
2021/09/14 07:32:30;;;;;;;2.42;1.05;;;;;;;;;;5077608;28;20032;-71
2021/09/14 07:34:55;;;;;;;3.88;1.30;;;;;;;;;;5077310;28;20020;-72
2021/09/14 07:37:22;;;;;;;5.72;1.63;;;;;;;;;;5051853;28;20017;-72
2021/09/14 07:39:47;;;;;;;2.78;1.10;;;;;;;;;;5064398;28;20056;-73
2021/09/14 07:42:13;;;;;;;2.92;1.20;;;;;;;;;;5060584;28;20413;-73
2021/09/14 07:44:38;;;;;;;2.38;1.33;;;;;;;;;;5061321;28;20108;-72
2021/09/14 07:47:04;;;;;;;1.92;1.20;;;;;;;;;;5071540;28;20032;-74
2021/09/14 07:49:30;;;;;;;1.70;1.00;;;;;;;;;;5071846;28;20020;-74
2021/09/14 07:51:55;;;;;;;14.93;1.80;;;;;;;;;;5071200;28;20159;-73
2021/09/14 07:54:21;;;;;;;3.55;1.13;;;;;;;;;;5078255;28;20099;-74
2021/09/14 07:56:46;;;;;;;2.00;0.73;;;;;;;;;;5075267;28;20111;-75
2021/09/14 07:59:12;;;;;;;2.63;1.00;;;;;;;;;;5051885;28;20080;-75
2021/09/14 08:01:39;;;;;;;2.50;0.98;;;;;;;;;;5082969;28;20037;-76
2021/09/14 08:04:06;;;;;;;1.48;0.88;;;;;;;;;;5072928;28;20029;-74
2021/09/14 08:06:31;;;;;;;0.90;0.77;;;;;;;;;;5070585;28;20082;-75
2021/09/14 08:08:57;;;;;;;1.40;0.90;;;;;;;;;;5076547;28;20032;-73
2021/09/14 08:11:22;;;;;;;2.13;0.70;;;;;;;;;;5084223;28;20040;-73
2021/09/14 08:13:50;;;;;;;1.60;0.75;;;;;;;;;;5082258;28;20019;-74
2021/09/14 08:16:16;;;;;;;2.55;1.00;;;;;;;;;;5078541;28;20051;-73
2021/09/14 08:18:41;;;;;;;2.97;1.10;;;;;;;;;;5077587;28;20079;-73
2021/09/14 08:21:07;;;;;;;2.88;1.10;;;;;;;;;;5072874;28;20029;-73
2021/09/14 08:23:34;;;;;;;1.60;0.70;;;;;;;;;;5075990;28;20268;-72
2021/09/14 08:26:00;;;;;;;2.55;1.02;;;;;;;;;;5082310;28;20107;-72
2021/09/14 08:28:25;;;;;;;2.25;1.88;;;;;;;;;;5077609;28;20529;-71
2021/09/14 08:30:51;;;;;;;2.38;0.90;;;;;;;;;;5075227;28;20025;-70
2021/09/14 08:33:18;;;;;;;1.15;0.77;;;;;;;;;;5077250;28;20024;-72
2021/09/14 08:35:43;;;;;;;1.35;0.90;;;;;;;;;;5077355;28;20024;-72
2021/09/14 08:38:09;;;;;;;1.60;1.20;;;;;;;;;;5076930;28;20035;-70
2021/09/14 08:40:35;;;;;;;2.15;0.80;;;;;;;;;;5076290;28;20058;-70
2021/09/14 08:43:01;;;;;;;1.15;0.88;;;;;;;;;;5088202;28;20028;-70
2021/09/14 08:45:27;;;;;;;4.18;1.00;;;;;;;;;;5081842;28;20028;-70
2021/09/14 08:47:53;;;;;;;2.80;0.80;;;;;;;;;;5087141;28;20028;-70
2021/09/14 08:50:22;;;;;;;3.67;1.10;;;;;;;;;;5082868;28;20411;-72
2021/09/14 08:52:49;;;;;;;1.90;1.00;;;;;;;;;;5083761;28;20060;-71
2021/09/14 08:55:14;;;;;;;2.20;1.30;;;;;;;;;;5074205;28;20031;-69
2021/09/14 08:57:48;;;;;;;3.58;1.02;;;;;;;;;;5073586;28;20024;-71
2021/09/14 09:00:14;;;;;;;3.15;1.17;;;;;;;;;;5082242;28;20068;-72
2021/09/14 09:02:40;;;;;;;2.13;1.20;;;;;;;;;;5070072;28;20068;-68
2021/09/14 09:05:06;;;;;;;2.50;0.90;;;;;;;;;;5068500;28;20834;-71
2021/09/14 09:07:36;;;;;;;2.42;1.13;;;;;;;;;;5070562;28;20024;-72
2021/09/14 09:10:11;;;;;;;1.35;0.90;;;;;;;;;;5073486;28;20515;-71
2021/09/14 09:12:47;;;;;;;2.05;1.17;;;;;;;;;;5079511;28;20031;-71
2021/09/14 09:15:26;;;;;;;2.70;1.02;;;;;;;;;;5067577;28;20047;-71
2021/09/14 09:18:13;;;;;;;3.90;1.00;;;;;;;;;;5069709;28;20028;-68
2021/09/14 09:20:42;;;;;;;1.58;0.82;;;;;;;;;;5074398;28;20111;-72
2021/09/14 09:23:27;;;;;;;2.38;1.10;;;;;;;;;;5083143;28;20111;-69
2021/09/14 09:26:05;;;;;;;1.20;0.70;;;;;;;;;;5074096;28;20626;-71
2021/09/14 09:28:31;;;;;;;2.45;0.52;;;;;;;;;;5080272;28;20036;-70
2021/09/14 09:31:00;;;;;;;1.40;0.60;;;;;;;;;;5071580;28;20074;-71
2021/09/14 09:33:31;;;;;;;2.45;0.70;;;;;;;;;;5071235;28;20028;-71
2021/09/14 09:36:02;;;;;;;1.15;0.80;;;;;;;;;;5067876;28;20024;-69
2021/09/14 09:38:28;;;;;;;1.55;0.60;;;;;;;;;;5069172;28;20029;-70
2021/09/14 09:40:55;;;;;;;1.52;0.70;;;;;;;;;;5068921;28;20077;-70
2021/09/14 09:43:30;;;;;;;1.50;0.65;;;;;;;;;;5066967;28;20492;-71
2021/09/14 09:46:10;;;;;;;1.63;0.80;;;;;;;;;;5087970;28;20491;-72
2021/09/14 09:48:37;;;;;;;1.58;0.65;;;;;;;;;;5073012;28;20020;-71
2021/09/14 09:51:04;;;;;;;0.60;0.60;;;;;;;;;;5072503;28;20017;-71
2021/09/14 09:53:34;;;;;;;2.70;0.70;;;;;;;;;;5072819;28;20040;-72
2021/09/14 09:56:01;;;;;;;2.03;0.60;;;;;;;;;;5061346;28;20107;-72
2021/09/14 09:58:27;;;;;;;1.80;0.70;;;;;;;;;;5075368;28;20089;-72
2021/09/14 10:01:00;;;;;;;0.60;0.60;;;;;;;;;;5088376;28;20488;-70
2021/09/14 10:03:29;;;;;;;1.20;0.90;;;;;;;;;;5072016;28;20368;-70
2021/09/14 10:05:57;;;;;;;1.77;0.88;;;;;;;;;;5067471;28;20071;-71
2021/09/14 10:08:25;;;;;;;2.60;0.80;;;;;;;;;;5074391;28;20024;-73
2021/09/14 10:10:58;;;;;;;2.53;0.80;;;;;;;;;;5080760;28;20040;-72
2021/09/14 10:13:33;;;;;;;4.75;0.90;;;;;;;;;;5077882;28;20025;-73
2021/09/14 10:15:59;;;;;;;3.08;0.85;;;;;;;;;;5078217;28;20365;-73
2021/09/14 10:18:27;;;;;;;1.25;0.70;;;;;;;;;;5075446;28;20028;-70
2021/09/14 10:20:52;;;;;;;1.10;0.70;;;;;;;;;;5075770;28;20024;-70
2021/09/14 10:23:21;;;;;;;0.90;0.70;;;;;;;;;;5084994;28;20422;-73
2021/09/14 10:25:52;;;;;;;2.47;0.82;;;;;;;;;;5082917;28;20450;-71
2021/09/14 10:28:20;;;;;;;1.02;0.82;;;;;;;;;;5072059;28;20036;-69
2021/09/14 10:30:48;;;;;;;1.88;0.68;;;;;;;;;;5072631;28;20032;-71
2021/09/14 10:33:22;;;;;;;1.08;0.77;;;;;;;;;;5068008;28;20048;-73
2021/09/14 10:35:47;;;;;;;1.50;0.70;;;;;;;;;;5072257;28;20032;-73
2021/09/14 10:38:15;;;;;;;2.55;0.80;;;;;;;;;;5077812;28;20044;-72
2021/09/14 10:41:13;;;;;;;1.40;0.68;;;;;;;;;;5080488;28;20035;-70
2021/09/14 10:43:40;;;;;;;2.17;0.70;;;;;;;;;;5072727;28;20048;-71
2021/09/14 10:46:06;;;;;;;4.32;0.60;;;;;;;;;;5075784;28;20600;-73
2021/09/14 10:48:34;;;;;;;2.13;0.70;;;;;;;;;;5073617;28;20012;-72
2021/09/14 10:51:17;;;;;;;1.05;0.57;;;;;;;;;;5071101;28;20126;-71
2021/09/14 10:54:03;;;;;;;1.73;0.80;;;;;;;;;;5061387;28;20024;-71
2021/09/14 10:56:29;;;;;;;1.15;0.63;;;;;;;;;;5078681;28;20044;-74
2021/09/14 10:58:55;;;;;;;3.70;0.57;;;;;;;;;;5087616;28;20102;-72
2021/09/14 11:01:25;;;;;;;1.00;0.52;;;;;;;;;;5072534;28;20103;-73
2021/09/14 11:04:04;;;;;;;1.40;0.65;;;;;;;;;;5074887;28;20051;-73
2021/09/14 11:06:30;;;;;;;0.85;0.50;;;;;;;;;;5080944;28;20024;-74
2021/09/14 11:08:57;;;;;;;3.58;0.70;;;;;;;;;;5086174;28;20036;-72
2021/09/14 11:11:22;;;;;;;1.58;0.70;;;;;;;;;;5076847;28;20103;-70
2021/09/14 11:13:48;;;;;;;1.00;0.52;;;;;;;;;;5072561;28;20178;-75
2021/09/14 11:16:16;;;;;;;1.25;0.68;;;;;;;;;;5083167;28;20031;-72
2021/09/14 11:18:43;;;;;;;0.73;0.60;;;;;;;;;;5066568;28;20055;-74
2021/09/14 11:21:11;;;;;;;1.65;0.60;;;;;;;;;;5091423;28;20034;-73
2021/09/14 11:23:44;;;;;;;0.30;0.30;;;;;;;;;;5086180;28;20031;-73
2021/09/14 11:26:11;;;;;;;0.77;0.50;;;;;;;;;;5064201;28;20107;-75
2021/09/14 11:28:39;;;;;;;4.97;0.70;;;;;;;;;;5064263;28;20035;-73
2021/09/14 11:31:09;;;;;;;0.40;0.40;;;;;;;;;;5068712;28;20028;-73
2021/09/14 11:33:40;;;;;;;1.80;0.50;;;;;;;;;;5070049;28;20137;-70
2021/09/14 11:36:06;;;;;;;1.02;0.70;;;;;;;;;;5070807;28;20024;-73
2021/09/14 11:38:32;;;;;;;0.43;0.30;;;;;;;;;;5071555;28;20109;-70
2021/09/14 11:41:00;;;;;;;1.60;0.57;;;;;;;;;;5073455;28;20063;-73
2021/09/14 11:43:32;;;;;;;3.17;0.82;;;;;;;;;;5072310;28;20465;-72
2021/09/14 11:45:59;;;;;;;0.55;0.50;;;;;;;;;;5074693;28;20035;-72
2021/09/14 11:48:33;;;;;;;3.97;0.50;;;;;;;;;;5080055;28;20123;-71
2021/09/14 11:51:08;;;;;;;1.20;0.50;;;;;;;;;;5074540;28;20107;-71
2021/09/14 11:53:34;;;;;;;1.38;0.60;;;;;;;;;;5078954;28;20032;-72
2021/09/14 11:56:09;;;;;;;1.70;0.70;;;;;;;;;;5075721;28;20034;-74
2021/09/14 11:58:36;;;;;;;1.73;0.68;;;;;;;;;;5078057;28;20046;-73
2021/09/14 12:01:07;;;;;;;1.13;0.70;;;;;;;;;;5070639;28;20047;-71
2021/09/14 12:03:46;;;;;;;1.08;0.52;;;;;;;;;;5078384;28;20032;-75
2021/09/14 12:06:20;;;;;;;0.82;0.45;;;;;;;;;;5080224;28;20029;-74
2021/09/14 12:08:45;;;;;;;1.60;0.40;;;;;;;;;;5082401;28;20024;-76
2021/09/14 12:11:27;;;;;;;1.25;0.52;;;;;;;;;;5071231;28;20365;-74
2021/09/14 12:13:58;;;;;;;4.10;0.65;;;;;;;;;;5064136;28;20038;-72
2021/09/14 12:16:29;;;;;;;0.30;0.30;;;;;;;;;;5073493;28;20032;-74
2021/09/14 12:18:58;;;;;;;2.15;0.50;;;;;;;;;;5058953;28;20033;-74
2021/09/14 12:21:25;;;;;;;1.08;0.50;;;;;;;;;;5069942;28;20020;-75
2021/09/14 12:23:51;;;;;;;1.70;0.50;;;;;;;;;;5060283;28;20053;-75
2021/09/14 12:26:22;;;;;;;1.08;0.60;;;;;;;;;;5068162;28;20024;-75
2021/09/14 12:28:49;;;;;;;8.70;0.80;;;;;;;;;;5071379;28;20107;-73
2021/09/14 12:31:16;;;;;;;1.25;0.50;;;;;;;;;;5069512;28;20464;-77
2021/09/14 12:33:41;;;;;;;0.90;0.47;;;;;;;;;;5079060;28;20062;-75
2021/09/14 12:36:08;;;;;;;0.68;0.50;;;;;;;;;;5075648;28;20060;-73
2021/09/14 12:38:33;;;;;;;0.70;0.68;;;;;;;;;;5071146;28;20030;-72
2021/09/14 12:40:59;;;;;;;2.47;0.70;;;;;;;;;;5075393;28;20056;-72
2021/09/14 12:43:25;;;;;;;0.70;0.60;;;;;;;;;;5069212;28;20032;-74
2021/09/14 12:45:50;;;;;;;1.23;0.70;;;;;;;;;;5080216;28;20020;-71
2021/09/14 12:48:16;;;;;;;1.17;0.47;;;;;;;;;;5087183;28;20028;-71
2021/09/14 12:50:41;;;;;;;1.05;0.65;;;;;;;;;;5081624;28;20036;-72
2021/09/14 12:53:07;;;;;;;0.85;0.65;;;;;;;;;;5087334;28;20039;-74
2021/09/14 12:55:34;;;;;;;1.40;0.70;;;;;;;;;;5081943;28;20016;-71
2021/09/14 12:58:00;;;;;;;1.35;0.70;;;;;;;;;;5088935;28;20119;-72
2021/09/14 13:00:25;;;;;;;0.63;0.50;;;;;;;;;;5085197;28;20179;-73
2021/09/14 13:02:51;;;;;;;1.25;0.60;;;;;;;;;;5086462;28;20047;-73
2021/09/14 13:05:16;;;;;;;0.95;0.60;;;;;;;;;;5077513;28;20504;-72
2021/09/14 13:07:42;;;;;;;0.63;0.50;;;;;;;;;;5087180;28;20040;-75
2021/09/14 13:10:09;;;;;;;3.90;0.70;;;;;;;;;;5092470;28;20060;-72
2021/09/14 13:12:36;;;;;;;0.57;0.57;;;;;;;;;;5087398;28;20050;-72
2021/09/14 13:17:46;;;;;;;2.30;0.60;;;;;;;;;;5080423;28;20078;-71
2021/09/14 13:20:12;;;;;;;1.02;0.60;;;;;;;;;;5073024;28;20384;-69
2021/09/14 13:22:38;;;;;;;1.17;0.70;;;;;;;;;;5087804;28;20026;-72
2021/09/14 13:25:04;;;;;;;1.00;0.60;;;;;;;;;;5073042;28;20020;-72
2021/09/14 13:27:29;;;;;;;1.02;0.65;;;;;;;;;;5078395;28;20029;-70
2021/09/14 13:29:55;;;;;;;2.13;0.80;;;;;;;;;;5074579;28;20027;-72
2021/09/14 13:32:21;;;;;;;1.13;0.70;;;;;;;;;;5075945;28;20028;-72
2021/09/14 13:34:48;;;;;;;1.35;0.60;;;;;;;;;;5073526;28;20025;-71
2021/09/14 13:37:14;;;;;;;1.02;0.60;;;;;;;;;;5082644;28;20024;-71
2021/09/14 13:39:39;;;;;;;1.05;0.68;;;;;;;;;;5073112;28;20104;-73
2021/09/14 13:42:07;;;;;;;2.53;0.80;;;;;;;;;;5074053;28;20468;-72
2021/09/14 13:47:10;;;;;;;1.08;0.82;;;;;;;;;;5073278;28;20376;-71
2021/09/14 13:49:35;;;;;;;1.27;0.65;;;;;;;;;;5072364;28;20032;-72
2021/09/14 13:52:02;;;;;;;1.15;0.65;;;;;;;;;;5069386;28;20077;-70
2021/09/14 13:54:27;;;;;;;1.77;0.80;;;;;;;;;;5073445;28;20024;-72
2021/09/14 13:56:53;;;;;;;1.10;0.75;;;;;;;;;;5072888;28;20043;-73
2021/09/14 13:59:20;;;;;;;0.88;0.80;;;;;;;;;;5076919;28;20083;-73
2021/09/14 14:01:45;;;;;;;1.17;0.75;;;;;;;;;;5064210;28;20025;-73
2021/09/14 14:04:11;;;;;;;1.65;0.70;;;;;;;;;;5074795;28;20028;-73
2021/09/14 14:06:37;;;;;;;1.00;0.80;;;;;;;;;;5077798;28;20468;-74
2021/09/14 14:09:03;;;;;;;2.58;0.80;;;;;;;;;;5073587;28;20024;-73
2021/09/14 14:11:29;;;;;;;1.55;0.80;;;;;;;;;;5073478;28;20028;-73
2021/09/14 14:13:54;;;;;;;2.13;0.50;;;;;;;;;;5063746;28;20052;-75
2021/09/14 14:16:20;;;;;;;3.85;0.90;;;;;;;;;;5072058;28;20355;-73
2021/09/14 14:18:45;;;;;;;0.90;0.80;;;;;;;;;;5072723;28;20027;-74
2021/09/14 14:21:11;;;;;;;1.45;0.80;;;;;;;;;;5072379;28;20021;-75
2021/09/14 14:23:37;;;;;;;0.95;0.70;;;;;;;;;;5063248;28;20480;-75
2021/09/14 14:26:03;;;;;;;0.70;0.60;;;;;;;;;;5077721;28;20103;-75
2021/09/14 14:28:30;;;;;;;1.40;0.80;;;;;;;;;;5077733;28;20035;-74
2021/09/14 14:30:56;;;;;;;1.52;0.80;;;;;;;;;;5077548;28;20047;-75
2021/09/14 14:33:21;;;;;;;1.35;0.80;;;;;;;;;;5076286;28;20465;-73
2021/09/14 14:35:47;;;;;;;3.35;0.70;;;;;;;;;;5076756;28;20082;-75
2021/09/14 14:38:13;;;;;;;2.70;0.70;;;;;;;;;;5070649;28;20123;-74
2021/09/14 14:40:40;;;;;;;1.73;0.90;;;;;;;;;;5066559;28;20362;-75
2021/09/14 14:43:06;;;;;;;1.95;0.80;;;;;;;;;;5080555;28;20030;-74
2021/09/14 14:45:32;;;;;;;1.75;1.00;;;;;;;;;;5067870;28;20100;-73
2021/09/14 14:47:59;;;;;;;1.33;0.80;;;;;;;;;;5078540;28;20036;-73
2021/09/14 14:50:28;;;;;;;2.60;0.88;;;;;;;;;;5071757;28;20078;-72
2021/09/14 14:52:53;;;;;;;1.73;0.80;;;;;;;;;;5072707;28;20012;-71
2021/09/14 14:55:19;;;;;;;2.00;1.02;;;;;;;;;;5074365;28;20423;-73
2021/09/14 14:57:44;;;;;;;2.78;0.90;;;;;;;;;;5059371;28;20028;-73
2021/09/14 15:00:13;;;;;;;2.35;0.70;;;;;;;;;;5080640;28;20055;-74
2021/09/14 15:02:39;;;;;;;1.65;0.90;;;;;;;;;;5079009;28;20040;-74
2021/09/14 15:05:05;;;;;;;2.47;0.90;;;;;;;;;;5079071;28;20159;-73
2021/09/14 15:07:31;;;;;;;1.23;0.80;;;;;;;;;;5072556;28;20104;-72
2021/09/14 15:09:56;;;;;;;2.17;0.90;;;;;;;;;;5083418;28;20503;-75
2021/09/14 15:12:21;;;;;;;1.45;0.68;;;;;;;;;;5074066;28;20483;-75
2021/09/14 15:14:47;;;;;;;1.00;0.90;;;;;;;;;;5066116;28;20013;-73
2021/09/14 15:17:13;;;;;;;2.35;0.93;;;;;;;;;;5064023;28;20021;-73
2021/09/14 15:19:40;;;;;;;3.30;0.80;;;;;;;;;;5080820;28;20039;-74
2021/09/14 15:22:05;;;;;;;1.50;0.80;;;;;;;;;;5076394;28;20054;-73
2021/09/14 15:24:32;;;;;;;1.48;0.77;;;;;;;;;;5080875;28;20028;-75
2021/09/14 15:26:58;;;;;;;1.70;0.80;;;;;;;;;;5072084;28;20028;-75
2021/09/14 15:29:23;;;;;;;1.88;0.90;;;;;;;;;;5072778;28;20431;-74
2021/09/14 15:31:49;;;;;;;2.50;0.95;;;;;;;;;;5071997;28;20024;-74
2021/09/14 15:34:16;;;;;;;1.13;0.70;;;;;;;;;;5075277;28;20346;-74
2021/09/14 15:36:42;;;;;;;1.13;0.70;;;;;;;;;;5083222;28;20634;-74
2021/09/14 15:39:08;;;;;;;1.80;0.90;;;;;;;;;;5083299;28;20074;-75